Time;durP1;ratioP1;P1;durP2;ratioP2;P2;SDS_P1;SDS_P2;PMS_P1;PMS_P2;Temp;Humidity;BMP_temperature;BMP_pressure;BME280_temperature;BME280_humidity;BME280_pressure;Samples;Min_cycle;Max_cycle;Signal;HPM_P1;HPM_P2
2021/07/04 00:02:08;;;;;;;7.90;5.73;;;18.10;99.90;;;;;;4979834;28;20279;-82
2021/07/04 00:04:33;;;;;;;6.93;4.83;;;18.20;99.90;;;;;;4980828;28;20185;-82
2021/07/04 00:06:59;;;;;;;6.83;5.03;;;18.10;99.90;;;;;;4981441;28;20177;-82
2021/07/04 00:09:25;;;;;;;7.13;5.20;;;18.20;99.90;;;;;;4980962;28;20584;-81
2021/07/04 00:11:50;;;;;;;6.33;5.20;;;18.20;99.90;;;;;;4981082;28;20193;-82
2021/07/04 00:14:16;;;;;;;9.47;5.93;;;18.10;99.90;;;;;;4981329;28;20176;-82
2021/07/04 00:16:42;;;;;;;8.23;5.70;;;18.20;99.90;;;;;;4980954;28;20183;-82
2021/07/04 00:19:08;;;;;;;7.60;5.53;;;18.20;99.90;;;;;;4980272;28;20181;-82
2021/07/04 00:21:33;;;;;;;7.70;5.27;;;18.10;99.90;;;;;;4981086;28;20203;-82
2021/07/04 00:23:59;;;;;;;7.83;5.40;;;18.20;99.90;;;;;;4981749;28;20177;-82
2021/07/04 00:26:24;;;;;;;7.53;5.27;;;18.10;99.90;;;;;;4980691;28;20360;-82
2021/07/04 00:28:51;;;;;;;8.63;5.87;;;18.10;99.90;;;;;;4980468;28;20220;-82
2021/07/04 00:31:17;;;;;;;6.87;5.30;;;18.10;99.90;;;;;;4981178;28;20204;-82
2021/07/04 00:33:42;;;;;;;8.87;5.73;;;18.10;99.90;;;;;;4980854;28;20189;-82
2021/07/04 00:36:08;;;;;;;7.80;5.70;;;18.10;99.90;;;;;;4980446;28;20177;-82
2021/07/04 00:38:35;;;;;;;6.90;5.10;;;18.10;99.90;;;;;;4980795;28;20255;-82
2021/07/04 00:41:00;;;;;;;7.77;5.93;;;18.10;99.90;;;;;;4980732;28;20197;-82
2021/07/04 00:43:26;;;;;;;7.17;5.50;;;18.10;99.90;;;;;;4980216;28;20188;-82
2021/07/04 00:45:51;;;;;;;8.77;6.00;;;18.20;99.90;;;;;;4980192;28;20189;-82
2021/07/04 00:48:17;;;;;;;11.27;5.80;;;18.20;99.90;;;;;;4981158;28;20204;-82
2021/07/04 00:50:43;;;;;;;9.30;5.20;;;18.10;99.90;;;;;;4980565;28;20208;-82
2021/07/04 00:53:08;;;;;;;8.60;5.37;;;18.00;99.90;;;;;;4981192;28;20181;-82
2021/07/04 00:55:34;;;;;;;6.83;5.17;;;18.00;99.90;;;;;;4980970;28;20185;-82
2021/07/04 00:58:00;;;;;;;6.83;5.00;;;18.00;99.90;;;;;;4981013;28;20192;-82
2021/07/04 01:00:27;;;;;;;6.73;5.20;;;18.00;99.90;;;;;;4980892;28;20286;-82
2021/07/04 01:02:53;;;;;;;8.37;5.30;;;18.00;99.90;;;;;;4980823;28;20225;-82
2021/07/04 01:05:27;;;;;;;7.03;5.20;;;18.00;99.90;;;;;;4981235;28;20514;-82
2021/07/04 01:07:52;;;;;;;6.90;5.27;;;18.00;99.90;;;;;;4981054;28;20204;-82
2021/07/04 01:10:21;;;;;;;9.07;5.30;;;18.00;99.90;;;;;;4980458;28;20242;-82
2021/07/04 01:12:47;;;;;;;7.10;5.13;;;18.00;99.90;;;;;;4982862;28;20200;-82
2021/07/04 01:15:17;;;;;;;5.60;4.93;;;17.90;99.90;;;;;;4984861;28;20169;-82
2021/07/04 01:17:42;;;;;;;7.23;5.10;;;17.90;99.90;;;;;;4984842;28;20183;-82
2021/07/04 01:20:12;;;;;;;7.70;4.77;;;17.90;99.90;;;;;;4984450;28;20653;-82
2021/07/04 01:22:38;;;;;;;5.90;4.83;;;17.90;99.90;;;;;;4985112;28;20690;-83
2021/07/04 01:25:08;;;;;;;7.30;5.00;;;17.90;99.90;;;;;;4985044;28;20232;-82
2021/07/04 01:27:34;;;;;;;8.07;5.10;;;17.90;99.90;;;;;;4984442;28;20169;-82
2021/07/04 01:30:00;;;;;;;6.10;4.77;;;17.90;99.90;;;;;;4983822;28;20304;-82
2021/07/04 01:32:25;;;;;;;7.23;5.10;;;17.90;99.90;;;;;;4983622;28;20259;-82
2021/07/04 01:34:51;;;;;;;8.30;5.00;;;17.70;99.90;;;;;;4983954;28;20173;-82
2021/07/04 01:37:16;;;;;;;5.83;4.90;;;17.70;99.90;;;;;;4984041;28;20597;-81
2021/07/04 01:39:42;;;;;;;5.37;4.10;;;17.70;99.90;;;;;;4983929;28;20714;-82
2021/07/04 01:42:08;;;;;;;6.83;4.33;;;17.70;99.90;;;;;;4983580;28;20256;-82
2021/07/04 01:44:33;;;;;;;5.53;4.23;;;17.70;99.90;;;;;;4983770;28;20184;-82
2021/07/04 01:46:59;;;;;;;6.83;4.53;;;17.70;99.90;;;;;;4984529;28;20180;-82
2021/07/04 01:49:24;;;;;;;5.57;4.67;;;17.70;99.90;;;;;;4982545;28;20583;-82
2021/07/04 01:51:52;;;;;;;5.80;5.03;;;17.80;99.90;;;;;;4983572;28;20197;-82
2021/07/04 01:54:17;;;;;;;5.90;4.50;;;17.70;99.90;;;;;;4983855;28;20637;-82
2021/07/04 01:56:43;;;;;;;5.70;4.53;;;17.70;99.90;;;;;;4983304;28;20239;-82
2021/07/04 01:59:09;;;;;;;6.43;4.67;;;17.70;99.90;;;;;;4984653;28;20195;-82
2021/07/04 02:01:34;;;;;;;6.17;4.80;;;17.70;99.90;;;;;;4984100;28;20224;-82
2021/07/04 02:04:00;;;;;;;6.43;4.63;;;17.60;99.90;;;;;;4968523;28;20682;-82
2021/07/04 02:06:25;;;;;;;6.90;5.20;;;17.70;99.90;;;;;;4999904;28;20669;-82
2021/07/04 02:08:51;;;;;;;6.00;5.00;;;17.70;99.90;;;;;;4983881;28;20212;-82
2021/07/04 02:11:16;;;;;;;6.63;4.90;;;17.60;99.90;;;;;;4983547;28;20197;-82
2021/07/04 02:13:42;;;;;;;5.63;4.60;;;17.70;99.90;;;;;;4984296;28;20645;-82
2021/07/04 02:16:07;;;;;;;6.17;4.50;;;17.70;99.90;;;;;;4985539;28;20176;-81
2021/07/04 02:18:33;;;;;;;6.10;5.10;;;17.80;99.90;;;;;;4984481;28;20189;-82
2021/07/04 02:20:58;;;;;;;7.53;4.90;;;17.80;99.90;;;;;;4984471;28;20200;-82
2021/07/04 02:23:26;;;;;;;6.27;4.60;;;17.80;99.90;;;;;;4984581;28;20181;-82
2021/07/04 02:25:52;;;;;;;6.37;5.20;;;17.80;99.90;;;;;;4984192;28;20211;-82
2021/07/04 02:28:19;;;;;;;8.00;5.20;;;17.70;99.90;;;;;;4984293;28;20215;-82
2021/07/04 02:30:45;;;;;;;7.20;5.23;;;17.70;99.90;;;;;;4984576;28;20248;-82
2021/07/04 02:33:12;;;;;;;7.00;5.53;;;17.80;99.90;;;;;;4983961;28;20533;-82
2021/07/04 02:35:39;;;;;;;7.40;5.27;;;17.80;99.90;;;;;;4985825;28;20188;-82
2021/07/04 02:38:05;;;;;;;7.67;5.70;;;17.90;99.90;;;;;;4984617;28;20212;-81
2021/07/04 02:40:30;;;;;;;8.70;5.57;;;17.90;99.90;;;;;;4968214;28;20189;-82
2021/07/04 02:42:56;;;;;;;7.70;5.33;;;17.90;99.90;;;;;;4984074;28;20200;-81
2021/07/04 02:45:22;;;;;;;8.33;5.77;;;17.80;99.90;;;;;;4981525;28;20188;-81
2021/07/04 02:47:48;;;;;;;6.67;5.20;;;17.80;99.90;;;;;;4965570;28;20181;-82
2021/07/04 02:50:14;;;;;;;8.00;5.43;;;17.80;99.90;;;;;;4981603;28;20574;-82
2021/07/04 02:52:39;;;;;;;8.20;5.73;;;17.70;99.90;;;;;;4982291;28;20208;-82
2021/07/04 02:55:06;;;;;;;7.73;5.73;;;17.80;99.90;;;;;;4982732;28;20177;-82
2021/07/04 02:57:31;;;;;;;9.20;6.17;;;17.70;99.90;;;;;;4982684;28;20177;-81
2021/07/04 02:59:57;;;;;;;8.07;5.90;;;17.70;99.90;;;;;;4982196;28;20607;-82
2021/07/04 03:02:22;;;;;;;7.63;5.67;;;17.70;99.90;;;;;;4983200;28;20212;-82
2021/07/04 03:04:48;;;;;;;7.63;5.57;;;17.70;99.90;;;;;;4982686;28;20181;-82
2021/07/04 03:07:14;;;;;;;7.93;5.90;;;17.70;99.90;;;;;;4982189;28;20554;-82
2021/07/04 03:09:40;;;;;;;7.63;6.10;;;17.80;99.90;;;;;;4981902;28;20220;-82
2021/07/04 03:12:06;;;;;;;8.00;5.87;;;17.70;99.90;;;;;;4982979;28;20200;-82
2021/07/04 03:14:32;;;;;;;9.30;6.73;;;17.70;99.90;;;;;;4982382;28;20253;-82
2021/07/04 03:16:58;;;;;;;8.57;6.40;;;17.60;99.90;;;;;;4983090;28;20184;-81
2021/07/04 03:19:23;;;;;;;10.90;7.07;;;17.60;99.90;;;;;;4982779;28;20193;-82
2021/07/04 03:21:49;;;;;;;8.83;6.43;;;17.60;99.90;;;;;;4964941;28;20272;-82
2021/07/04 03:24:15;;;;;;;8.63;6.33;;;17.40;99.90;;;;;;4982415;28;20218;-82
2021/07/04 03:26:40;;;;;;;7.70;6.73;;;17.50;99.90;;;;;;4982001;28;20189;-82
2021/07/04 03:29:06;;;;;;;10.03;7.17;;;17.50;99.90;;;;;;4982795;28;20212;-81
2021/07/04 03:31:31;;;;;;;9.53;7.50;;;17.40;99.90;;;;;;4981757;28;20204;-82
2021/07/04 03:33:57;;;;;;;8.27;6.53;;;17.40;99.90;;;;;;4983046;28;20596;-81
2021/07/04 03:36:23;;;;;;;10.07;6.93;;;17.50;99.90;;;;;;4982616;28;20180;-81
2021/07/04 03:38:48;;;;;;;9.07;6.80;;;17.50;99.90;;;;;;4982125;28;20246;-82
2021/07/04 03:41:14;;;;;;;7.40;6.13;;;17.50;99.90;;;;;;4999404;28;20218;-82
2021/07/04 03:43:39;;;;;;;10.57;7.20;;;17.50;99.90;;;;;;4983095;28;20227;-82
2021/07/04 03:46:05;;;;;;;10.67;6.97;;;17.50;99.90;;;;;;4981529;28;20184;-81
2021/07/04 03:48:30;;;;;;;9.67;6.60;;;17.50;99.90;;;;;;4981528;28;20735;-82
2021/07/04 03:50:56;;;;;;;9.07;6.77;;;17.50;99.90;;;;;;4981596;28;20623;-82
2021/07/04 03:53:21;;;;;;;9.27;6.80;;;17.50;99.90;;;;;;4982789;28;20660;-82
2021/07/04 03:55:47;;;;;;;9.80;6.90;;;17.50;99.90;;;;;;4982330;28;20267;-82
2021/07/04 03:58:12;;;;;;;9.53;6.43;;;17.50;99.90;;;;;;4981907;28;20184;-82
2021/07/04 04:00:38;;;;;;;8.40;7.00;;;17.50;99.90;;;;;;4979996;28;20181;-82
2021/07/04 04:03:03;;;;;;;10.63;6.83;;;17.50;99.90;;;;;;4980906;28;20188;-82
2021/07/04 04:05:29;;;;;;;10.27;6.13;;;17.50;99.90;;;;;;4981557;28;20173;-82
2021/07/04 04:07:54;;;;;;;10.00;6.67;;;17.50;99.90;;;;;;4981680;28;20204;-82
2021/07/04 04:10:20;;;;;;;9.63;6.57;;;17.50;99.90;;;;;;4982223;28;20260;-81
2021/07/04 04:12:46;;;;;;;9.17;6.60;;;17.50;99.90;;;;;;4982780;28;20201;-82
2021/07/04 04:15:11;;;;;;;8.10;6.10;;;17.50;99.90;;;;;;4984035;28;20187;-82
2021/07/04 04:17:37;;;;;;;10.70;6.40;;;17.50;99.90;;;;;;4983904;28;20214;-81
2021/07/04 04:20:04;;;;;;;8.97;6.43;;;17.50;99.90;;;;;;4984190;28;20173;-82
2021/07/04 04:22:30;;;;;;;8.70;6.57;;;17.50;99.90;;;;;;4981952;28;20200;-83
2021/07/04 04:24:55;;;;;;;11.07;6.40;;;17.40;99.90;;;;;;4983405;28;20177;-82
2021/07/04 04:27:21;;;;;;;9.37;6.80;;;17.40;99.90;;;;;;4978445;28;20181;-82
2021/07/04 04:29:47;;;;;;;9.10;6.43;;;17.50;99.90;;;;;;4977552;28;20564;-82
2021/07/04 04:32:12;;;;;;;9.93;6.77;;;17.50;99.90;;;;;;4977923;28;20204;-82
2021/07/04 04:34:38;;;;;;;7.83;6.30;;;17.50;99.90;;;;;;4977972;28;20268;-82
2021/07/04 04:37:03;;;;;;;8.80;6.73;;;17.50;99.90;;;;;;4977505;28;20656;-82
2021/07/04 04:39:29;;;;;;;8.00;6.67;;;17.50;99.90;;;;;;4978850;28;20212;-82
2021/07/04 04:41:56;;;;;;;10.17;7.30;;;17.50;99.90;;;;;;4979093;28;20205;-81
2021/07/04 04:44:21;;;;;;;9.07;6.23;;;17.50;99.90;;;;;;4980101;28;20270;-82
2021/07/04 04:46:47;;;;;;;10.17;6.63;;;17.50;99.90;;;;;;4979592;28;20211;-82
2021/07/04 04:49:12;;;;;;;9.37;6.90;;;17.50;99.90;;;;;;4980141;28;20196;-82
2021/07/04 04:51:38;;;;;;;8.57;6.70;;;17.50;99.90;;;;;;4979401;28;20205;-82
2021/07/04 04:54:04;;;;;;;11.07;7.33;;;17.50;99.90;;;;;;4979338;28;20169;-82
2021/07/04 04:56:30;;;;;;;9.83;7.27;;;17.60;99.90;;;;;;4979731;28;20215;-82
2021/07/04 04:58:56;;;;;;;8.60;6.83;;;17.60;99.90;;;;;;4980165;28;20185;-81
2021/07/04 05:01:21;;;;;;;8.10;6.37;;;17.50;99.90;;;;;;4981176;28;20220;-83
2021/07/04 05:03:47;;;;;;;9.17;7.23;;;17.50;99.90;;;;;;4982277;28;20191;-82
2021/07/04 05:06:12;;;;;;;9.20;6.83;;;17.50;99.90;;;;;;4964370;28;20184;-82
2021/07/04 05:08:38;;;;;;;11.57;6.97;;;17.50;99.90;;;;;;4975578;28;20679;-83
2021/07/04 05:11:05;;;;;;;10.27;7.23;;;17.50;99.90;;;;;;4975838;28;20219;-83
2021/07/04 05:13:30;;;;;;;9.33;7.10;;;17.50;99.90;;;;;;4975237;28;20664;-83
2021/07/04 05:15:56;;;;;;;9.80;7.10;;;17.50;99.90;;;;;;4975285;28;20176;-83
2021/07/04 05:18:21;;;;;;;12.13;7.63;;;17.60;99.90;;;;;;4974913;28;20652;-82
2021/07/04 05:20:47;;;;;;;9.13;7.27;;;17.60;99.90;;;;;;4974103;28;20984;-82
2021/07/04 05:23:12;;;;;;;11.23;7.57;;;17.70;99.90;;;;;;4974036;28;20204;-83
2021/07/04 05:25:38;;;;;;;11.03;7.80;;;17.60;99.90;;;;;;4974019;28;20187;-83
2021/07/04 05:28:03;;;;;;;11.73;7.57;;;17.60;99.90;;;;;;4973840;28;20200;-83
2021/07/04 05:30:29;;;;;;;10.33;8.17;;;17.70;99.90;;;;;;4973712;28;20181;-82
2021/07/04 05:32:55;;;;;;;12.23;7.70;;;17.60;99.90;;;;;;4974367;28;20213;-84
2021/07/04 05:35:20;;;;;;;10.03;7.37;;;17.60;99.90;;;;;;4974691;28;20177;-83
2021/07/04 05:37:47;;;;;;;12.80;8.47;;;17.80;99.90;;;;;;4958311;28;20236;-82
2021/07/04 05:40:14;;;;;;;11.73;7.67;;;17.60;99.90;;;;;;4975124;28;20169;-82
2021/07/04 05:42:42;;;;;;;11.53;8.10;;;17.60;99.90;;;;;;4980645;28;20252;-82
2021/07/04 05:45:14;;;;;;;12.20;7.53;;;17.60;99.90;;;;;;4980041;28;20177;-83
2021/07/04 05:47:40;;;;;;;13.53;8.20;;;17.50;99.90;;;;;;4980002;28;20204;-82
2021/07/04 05:50:06;;;;;;;12.10;8.43;;;17.70;99.90;;;;;;4978270;28;20576;-82
2021/07/04 05:52:31;;;;;;;11.47;7.97;;;17.80;99.90;;;;;;4979842;28;20197;-82
2021/07/04 05:54:57;;;;;;;11.83;7.97;;;17.70;99.90;;;;;;4979341;28;20248;-82
2021/07/04 05:57:22;;;;;;;11.70;7.63;;;17.80;99.90;;;;;;4979163;28;20735;-82
2021/07/04 05:59:48;;;;;;;12.23;9.07;;;17.70;99.90;;;;;;4982978;28;20177;-82
2021/07/04 06:02:14;;;;;;;10.73;8.13;;;17.70;99.90;;;;;;4982801;28;20221;-82
2021/07/04 06:04:39;;;;;;;12.13;8.30;;;17.70;99.90;;;;;;4982186;28;20191;-82
2021/07/04 06:07:05;;;;;;;11.03;7.63;;;17.80;99.90;;;;;;4965616;28;20196;-82
2021/07/04 06:09:30;;;;;;;10.43;8.40;;;17.70;99.90;;;;;;4981168;28;20323;-82
2021/07/04 06:11:56;;;;;;;11.87;8.07;;;17.80;99.90;;;;;;4982255;28;20598;-82
2021/07/04 06:14:21;;;;;;;9.63;7.20;;;17.80;99.90;;;;;;4982014;28;20187;-82
2021/07/04 06:16:47;;;;;;;12.10;7.83;;;17.70;99.90;;;;;;4981965;28;20184;-82
2021/07/04 06:19:13;;;;;;;10.37;7.83;;;17.90;99.90;;;;;;4982521;28;20188;-82
2021/07/04 06:21:38;;;;;;;12.60;7.83;;;17.80;99.90;;;;;;4981519;28;20258;-82
2021/07/04 06:24:04;;;;;;;11.43;7.23;;;17.80;99.90;;;;;;4979896;28;20184;-82
2021/07/04 06:26:30;;;;;;;9.47;7.17;;;17.80;99.90;;;;;;4980156;28;20185;-82
2021/07/04 06:28:55;;;;;;;12.20;7.80;;;17.90;99.90;;;;;;4979016;28;20207;-82
2021/07/04 06:31:21;;;;;;;9.83;7.80;;;17.90;99.90;;;;;;4978878;28;20201;-82
2021/07/04 06:33:48;;;;;;;10.23;7.50;;;18.00;99.90;;;;;;4978351;28;20195;-82
2021/07/04 06:36:14;;;;;;;12.53;7.60;;;18.00;99.90;;;;;;4978707;28;20173;-82
2021/07/04 06:38:39;;;;;;;10.53;7.67;;;18.00;99.90;;;;;;4979141;28;20248;-82
2021/07/04 06:41:05;;;;;;;11.07;7.63;;;18.00;99.90;;;;;;4979604;28;20266;-82
2021/07/04 06:43:30;;;;;;;9.90;7.53;;;18.10;99.90;;;;;;4963539;28;20196;-82
2021/07/04 06:45:56;;;;;;;14.63;7.70;;;18.10;99.90;;;;;;4981012;28;20184;-84
2021/07/04 06:48:21;;;;;;;10.80;8.37;;;18.20;99.90;;;;;;4980069;28;20197;-81
2021/07/04 06:50:47;;;;;;;10.07;7.90;;;18.20;99.90;;;;;;4980069;28;20180;-81
2021/07/04 06:53:13;;;;;;;12.23;8.20;;;18.30;99.90;;;;;;4979099;28;20244;-81
2021/07/04 06:55:38;;;;;;;10.23;7.73;;;18.30;99.90;;;;;;4978601;28;20188;-81
2021/07/04 06:58:04;;;;;;;11.30;8.30;;;18.40;99.90;;;;;;4979781;28;20251;-81
2021/07/04 07:00:29;;;;;;;11.33;8.27;;;18.40;99.90;;;;;;4978925;28;20199;-81
2021/07/04 07:02:55;;;;;;;8.63;7.13;;;18.40;99.90;;;;;;4978543;28;20228;-81
2021/07/04 07:05:20;;;;;;;9.03;7.53;;;18.50;99.90;;;;;;4978183;28;20180;-81
2021/07/04 07:07:46;;;;;;;10.97;7.77;;;18.50;99.90;;;;;;4977331;28;20260;-81
2021/07/04 07:10:12;;;;;;;10.83;7.87;;;18.50;99.90;;;;;;4976668;28;20211;-81
2021/07/04 07:12:39;;;;;;;9.73;7.67;;;18.50;99.90;;;;;;4977474;28;20759;-81
2021/07/04 07:15:05;;;;;;;9.53;7.57;;;18.50;99.90;;;;;;4977923;28;20661;-81
2021/07/04 07:17:30;;;;;;;10.90;7.70;;;18.50;99.90;;;;;;4977463;28;20181;-81
2021/07/04 07:19:56;;;;;;;10.33;7.80;;;18.50;99.90;;;;;;4978738;28;20185;-81
2021/07/04 07:22:21;;;;;;;9.97;7.77;;;18.60;99.90;;;;;;4977991;28;20203;-81
2021/07/04 07:24:48;;;;;;;10.73;8.07;;;18.60;99.90;;;;;;4978223;28;20248;-82
2021/07/04 07:27:13;;;;;;;10.57;8.37;;;18.60;99.90;;;;;;4977380;28;20184;-82
2021/07/04 07:29:39;;;;;;;9.70;7.67;;;18.60;99.90;;;;;;4992998;28;20265;-81
2021/07/04 07:32:05;;;;;;;9.63;8.00;;;18.70;99.90;;;;;;4976902;28;20197;-82
2021/07/04 07:34:31;;;;;;;13.77;9.73;;;18.70;99.90;;;;;;4977921;28;20187;-81
2021/07/04 07:36:56;;;;;;;13.27;8.50;;;18.80;99.90;;;;;;4977358;28;20176;-81
2021/07/04 07:39:22;;;;;;;12.63;8.30;;;18.90;99.90;;;;;;4977573;28;20177;-80
2021/07/04 07:41:48;;;;;;;10.90;8.00;;;19.10;99.90;;;;;;4977643;28;20204;-81
2021/07/04 07:44:13;;;;;;;11.33;8.43;;;19.30;99.90;;;;;;4978001;28;20184;-81
2021/07/04 07:46:39;;;;;;;11.97;8.07;;;19.40;99.90;;;;;;4977479;28;20333;-81
2021/07/04 07:49:06;;;;;;;14.20;8.30;;;19.50;99.90;;;;;;4977482;28;20219;-81
2021/07/04 07:51:31;;;;;;;10.33;8.10;;;19.50;99.90;;;;;;4978599;28;20193;-81
2021/07/04 07:53:57;;;;;;;12.00;7.87;;;19.50;99.90;;;;;;4979172;28;20187;-81
2021/07/04 07:56:23;;;;;;;12.63;7.73;;;19.50;99.90;;;;;;4979706;28;20265;-81
2021/07/04 07:58:49;;;;;;;10.70;7.63;;;19.40;99.90;;;;;;4980126;28;20611;-81
2021/07/04 08:01:15;;;;;;;13.57;7.47;;;19.40;99.90;;;;;;4979786;28;20223;-81
2021/07/04 08:03:41;;;;;;;10.80;8.40;;;19.30;99.90;;;;;;4980036;28;20184;-81
2021/07/04 08:06:06;;;;;;;12.30;8.63;;;19.20;99.90;;;;;;4979520;28;20629;-81
2021/07/04 08:08:32;;;;;;;11.90;8.97;;;19.10;99.90;;;;;;4977363;28;20212;-81
2021/07/04 08:10:57;;;;;;;11.60;8.93;;;19.20;99.90;;;;;;4977613;28;20189;-81
2021/07/04 08:13:23;;;;;;;11.87;8.37;;;19.10;99.90;;;;;;4979515;28;20169;-81
2021/07/04 08:15:48;;;;;;;11.77;8.70;;;19.10;99.90;;;;;;4979453;28;20268;-81
2021/07/04 08:18:14;;;;;;;14.13;8.93;;;19.10;99.90;;;;;;4980047;28;20188;-81
2021/07/04 08:20:40;;;;;;;10.83;8.93;;;19.20;99.90;;;;;;4980199;28;20188;-81
2021/07/04 08:23:06;;;;;;;13.50;8.87;;;19.30;99.90;;;;;;4995202;28;20189;-81
2021/07/04 08:25:32;;;;;;;11.97;8.80;;;19.30;99.90;;;;;;4979913;28;20192;-81
2021/07/04 08:27:58;;;;;;;13.10;9.70;;;19.40;99.90;;;;;;4977554;28;20177;-81
2021/07/04 08:30:23;;;;;;;10.43;8.37;;;19.70;99.90;;;;;;4976130;28;20176;-81
2021/07/04 08:32:49;;;;;;;11.50;8.20;;;19.80;99.90;;;;;;4977267;28;20207;-81
2021/07/04 08:35:14;;;;;;;13.00;9.73;;;20.00;99.90;;;;;;4978213;28;20180;-81
2021/07/04 08:37:40;;;;;;;13.40;8.93;;;20.40;99.90;;;;;;4979334;28;20169;-81
2021/07/04 08:40:06;;;;;;;11.80;8.53;;;20.50;99.90;;;;;;4978444;28;20611;-81
2021/07/04 08:42:32;;;;;;;11.40;8.50;;;20.60;99.90;;;;;;4978069;28;20201;-81
2021/07/04 08:44:57;;;;;;;12.93;8.87;;;20.80;99.90;;;;;;4977436;28;20727;-81
2021/07/04 08:47:23;;;;;;;11.53;8.37;;;20.70;99.90;;;;;;4976774;28;20201;-81
2021/07/04 08:49:50;;;;;;;10.90;8.10;;;20.70;99.90;;;;;;4975905;28;20263;-81
2021/07/04 08:52:16;;;;;;;11.63;8.17;;;20.70;99.90;;;;;;4975815;28;20692;-81
2021/07/04 08:54:41;;;;;;;11.67;8.57;;;20.90;99.90;;;;;;4976352;28;20344;-82
2021/07/04 08:57:10;;;;;;;10.23;8.50;;;21.00;99.90;;;;;;4976661;28;20264;-81
2021/07/04 08:59:39;;;;;;;12.93;8.73;;;21.20;99.90;;;;;;4976029;28;20212;-81
2021/07/04 09:02:05;;;;;;;10.60;8.17;;;21.30;99.90;;;;;;4975041;28;20213;-81
2021/07/04 09:04:30;;;;;;;10.73;8.20;;;21.40;99.90;;;;;;4975146;28;20177;-81
2021/07/04 09:06:56;;;;;;;10.27;8.17;;;21.50;99.90;;;;;;4975873;28;20268;-81
2021/07/04 09:09:28;;;;;;;10.17;8.23;;;21.60;99.90;;;;;;4978247;28;20204;-83
2021/07/04 09:12:08;;;;;;;10.50;8.20;;;21.70;99.90;;;;;;4992151;28;20200;-82
2021/07/04 09:14:41;;;;;;;13.60;7.93;;;21.70;99.90;;;;;;4974937;28;20216;-83
2021/07/04 09:17:10;;;;;;;10.97;8.40;;;21.80;99.90;;;;;;4974970;28;20188;-83
2021/07/04 09:19:36;;;;;;;11.60;8.63;;;21.70;99.90;;;;;;4974793;28;20192;-82
2021/07/04 09:22:10;;;;;;;11.93;8.40;;;21.60;99.90;;;;;;4974527;28;20291;-82
2021/07/04 09:24:37;;;;;;;10.50;8.37;;;21.50;99.90;;;;;;4975387;28;20189;-83
2021/07/04 09:27:03;;;;;;;10.20;8.40;;;21.60;99.90;;;;;;4974965;28;20177;-82
2021/07/04 09:29:40;;;;;;;11.47;8.43;;;21.70;99.90;;;;;;4974782;28;20259;-83
2021/07/04 09:32:16;;;;;;;10.77;7.83;;;21.90;99.90;;;;;;4991560;28;20231;-82
2021/07/04 09:34:58;;;;;;;9.57;7.90;;;22.10;99.90;;;;;;4977972;28;20176;-82
2021/07/04 09:37:40;;;;;;;11.07;8.37;;;22.30;99.90;;;;;;4979873;28;20173;-82
2021/07/04 09:40:15;;;;;;;11.00;8.33;;;22.40;99.90;;;;;;4994305;28;20203;-82
2021/07/04 09:43:06;;;;;;;9.97;7.80;;;22.50;99.90;;;;;;4995582;28;20267;-83
2021/07/04 09:45:41;;;;;;;11.00;8.73;;;22.60;99.90;;;;;;4994730;28;20177;-82
2021/07/04 09:48:07;;;;;;;8.93;7.70;;;22.90;99.90;;;;;;4996480;28;20695;-83
2021/07/04 09:50:40;;;;;;;9.97;8.43;;;23.00;99.90;;;;;;4978455;28;20181;-82
2021/07/04 09:53:06;;;;;;;10.90;7.77;;;22.90;99.90;;;;;;4978378;28;20181;-82
2021/07/04 09:55:31;;;;;;;8.17;6.97;;;22.90;99.90;;;;;;4978771;28;20177;-82
2021/07/04 09:57:58;;;;;;;9.23;7.10;;;23.20;99.90;;;;;;4978239;28;20704;-83
2021/07/04 10:00:25;;;;;;;10.53;6.90;;;23.20;99.90;;;;;;4993911;28;20176;-82
2021/07/04 10:03:04;;;;;;;8.67;6.93;;;23.20;99.90;;;;;;4978726;28;20285;-82
2021/07/04 10:05:29;;;;;;;10.37;7.07;;;23.30;99.90;;;;;;4995112;28;20676;-83
2021/07/04 10:07:55;;;;;;;8.23;6.47;;;23.30;99.90;;;;;;4982451;28;20195;-83
2021/07/04 10:10:20;;;;;;;9.40;7.70;;;23.40;99.90;;;;;;4980442;28;20173;-83
2021/07/04 10:12:46;;;;;;;8.30;7.07;;;23.30;99.90;;;;;;4980600;28;20680;-84
2021/07/04 10:15:12;;;;;;;8.63;6.82;;;23.20;99.90;;;;;;4981141;28;20204;-83
2021/07/04 10:17:38;;;;;;;9.40;7.10;;;23.30;99.90;;;;;;4981829;28;20173;-83
2021/07/04 10:20:04;;;;;;;9.50;7.13;;;23.40;99.90;;;;;;4983073;28;20231;-83
2021/07/04 10:22:37;;;;;;;8.03;6.97;;;23.40;99.90;;;;;;4983073;28;20200;-83
2021/07/04 10:25:06;;;;;;;8.47;6.60;;;23.50;99.90;;;;;;4981361;28;20280;-83
2021/07/04 10:27:37;;;;;;;7.63;6.60;;;23.50;99.90;;;;;;4981050;28;20181;-84
2021/07/04 10:30:05;;;;;;;8.97;7.57;;;23.80;99.90;;;;;;4980923;28;20204;-83
2021/07/04 10:32:30;;;;;;;9.23;7.73;;;23.90;99.90;;;;;;4980624;28;20201;-83
2021/07/04 10:35:05;;;;;;;10.23;7.73;;;24.00;99.90;;;;;;4979819;28;20195;-83
2021/07/04 10:37:35;;;;;;;11.60;8.40;;;24.00;99.90;;;;;;4981813;28;20277;-83
2021/07/04 10:40:14;;;;;;;9.97;7.70;;;24.10;99.90;;;;;;4963888;28;20604;-83
2021/07/04 10:42:40;;;;;;;9.93;7.63;;;24.10;99.90;;;;;;4981645;28;20204;-83
2021/07/04 10:45:29;;;;;;;9.27;6.82;;;24.10;99.90;;;;;;4979475;28;20243;-83
2021/07/04 10:48:23;;;;;;;7.82;6.38;;;24.00;99.90;;;;;;4980976;28;20181;-83
2021/07/04 10:51:24;;;;;;;8.63;6.40;;;23.70;99.90;;;;;;4959734;28;20208;-81
2021/07/04 10:53:54;;;;;;;6.40;5.70;;;23.60;99.90;;;;;;4943547;29;20185;-83
2021/07/04 10:56:35;;;;;;;7.07;6.00;;;23.70;99.90;;;;;;4958312;28;20715;-83
2021/07/04 10:59:08;;;;;;;7.50;5.63;;;23.80;99.90;;;;;;4982204;28;20600;-83
2021/07/04 11:01:51;;;;;;;7.27;5.73;;;24.00;99.90;;;;;;4982887;28;20231;-81
2021/07/04 11:04:33;;;;;;;9.10;5.80;;;23.80;99.90;;;;;;4981990;28;20181;-81
2021/07/04 11:07:02;;;;;;;6.70;5.07;;;23.70;99.90;;;;;;4984207;28;20188;-83
2021/07/04 11:09:52;;;;;;;8.13;4.83;;;23.90;99.90;;;;;;4980591;28;20209;-81
2021/07/04 11:12:28;;;;;;;6.20;5.00;;;23.90;99.90;;;;;;4983560;28;20569;-80
2021/07/04 11:15:12;;;;;;;8.10;4.47;;;24.10;99.90;;;;;;4998089;28;20211;-82
2021/07/04 11:17:59;;;;;;;5.80;4.10;;;24.10;99.90;;;;;;4982631;28;20237;-82
2021/07/04 11:20:47;;;;;;;4.43;4.00;;;24.30;99.90;;;;;;4982501;28;20169;-83
2021/07/04 11:23:16;;;;;;;4.77;4.10;;;24.20;99.90;;;;;;4974342;28;20677;-80
2021/07/04 11:25:57;;;;;;;3.85;3.42;;;24.20;99.90;;;;;;4981955;28;20165;-83
2021/07/04 11:28:26;;;;;;;6.77;3.90;;;24.30;99.90;;;;;;4995337;28;20209;-81
2021/07/04 11:30:53;;;;;;;4.30;3.73;;;24.20;99.90;;;;;;4996710;28;20173;-83
2021/07/04 11:33:22;;;;;;;4.37;3.33;;;24.20;99.90;;;;;;4981172;28;20188;-81
2021/07/04 11:35:48;;;;;;;4.97;3.70;;;24.20;99.90;;;;;;4997058;28;20371;-81
2021/07/04 11:38:17;;;;;;;5.10;3.80;;;24.40;99.90;;;;;;4981045;28;20185;-83
2021/07/04 11:40:43;;;;;;;3.80;3.20;;;24.50;99.90;;;;;;4979273;28;20244;-81
2021/07/04 11:43:16;;;;;;;3.63;3.10;;;24.40;99.90;;;;;;4981888;28;20215;-82
2021/07/04 11:46:02;;;;;;;3.95;2.92;;;24.40;99.90;;;;;;4981209;28;20664;-82
2021/07/04 11:48:55;;;;;;;6.77;3.13;;;24.40;99.90;;;;;;4980412;28;20227;-82
2021/07/04 11:51:37;;;;;;;3.50;2.83;;;24.10;99.90;;;;;;4980333;28;20220;-82
2021/07/04 11:54:10;;;;;;;4.35;3.40;;;24.10;99.90;;;;;;4995359;28;20684;-82
2021/07/04 11:56:36;;;;;;;3.03;2.67;;;24.00;99.90;;;;;;4994800;28;20188;-81
2021/07/04 11:59:13;;;;;;;3.85;2.88;;;23.90;99.90;;;;;;4978255;28;20539;-81
2021/07/04 12:01:49;;;;;;;3.23;2.93;;;24.00;99.90;;;;;;4979338;28;20267;-81
2021/07/04 12:04:15;;;;;;;4.47;3.27;;;23.80;99.90;;;;;;4995080;28;20185;-82
2021/07/04 12:07:01;;;;;;;3.42;3.10;;;23.80;99.90;;;;;;4979704;28;20216;-81
2021/07/04 12:09:54;;;;;;;4.27;3.27;;;23.90;99.90;;;;;;4980103;28;20676;-81
2021/07/04 12:12:28;;;;;;;3.53;3.20;;;23.70;99.90;;;;;;4978016;28;20209;-81
2021/07/04 12:14:53;;;;;;;3.93;3.00;;;23.70;99.90;;;;;;4977650;28;20181;-82
2021/07/04 12:17:26;;;;;;;4.17;3.37;;;23.50;99.90;;;;;;4994132;28;20204;-82
2021/07/04 12:20:03;;;;;;;6.63;3.63;;;23.30;99.90;;;;;;4993585;28;20200;-82
2021/07/04 12:22:30;;;;;;;3.60;3.30;;;22.90;99.90;;;;;;4993195;28;20446;-81
2021/07/04 12:24:56;;;;;;;2.27;2.07;;;22.40;99.90;;;;;;4978776;28;20678;-81
2021/07/04 12:27:44;;;;;;;1.90;1.67;;;21.90;99.90;;;;;;4978209;28;20181;-80
2021/07/04 12:30:30;;;;;;;1.97;1.70;;;21.30;99.90;;;;;;4994547;28;20214;-81
2021/07/04 12:33:15;;;;;;;4.43;1.57;;;20.60;99.90;;;;;;4977886;28;20283;-82
2021/07/04 12:35:54;;;;;;;2.80;1.30;;;19.90;99.90;;;;;;4992120;28;20179;-82
2021/07/04 12:38:21;;;;;;;1.53;0.87;;;18.80;99.90;;;;;;4976140;28;20238;-82
2021/07/04 12:40:53;;;;;;;1.20;0.90;;;18.50;99.90;;;;;;4991976;28;20319;-82
2021/07/04 12:43:35;;;;;;;1.87;1.03;;;18.10;99.90;;;;;;4992641;28;20181;-83
2021/07/04 12:46:02;;;;;;;1.80;1.03;;;17.70;99.90;;;;;;4977047;28;20187;-82
2021/07/04 12:48:30;;;;;;;1.10;0.90;;;17.40;99.90;;;;;;4977260;28;20200;-81